NCAR-RAP Real-Time Weather Data

Output produced by METARs form (12 August 2020  18:14 UTC)
found at http://weather.rap.ucar.edu/surface/
 
KGGW 121753Z AUTO 16009G14KT 10SM CLR 29/15 A2968 RMK AO2 SLP035 T02940150 10294 20189 53000
KGGW 121653Z AUTO 14011KT 10SM CLR 27/15 A2968 RMK AO2 SLP033 T02670150
KGGW 121553Z AUTO 13011KT 10SM CLR 25/14 A2967 RMK AO2 SLP034 T02500144
KGGW 121453Z AUTO 12013G20KT 10SM CLR 23/13 A2968 RMK AO2 SLP037 T02330133 57006
KGGW 121441Z AUTO 13015KT 10SM CLR 23/13 A2968 RMK AO2 T02280133
KGGW 121426Z AUTO 12013KT 10SM VCTS CLR 23/13 A2969 RMK AO2 T02280128
KGGW 121353Z AUTO 12015KT 10SM CLR 22/12 A2969 RMK AO2 SLP037 T02170122 TSNO
KGGW 121253Z AUTO 11014KT 10SM CLR 20/11 A2969 RMK AO2 SLP038 T02000106 TSNO
KGGW 121153Z AUTO 10012KT 10SM CLR 19/09 A2970 RMK AO2 SLP040 T01890094 10217 20172 58004 TSNO
KGGW 121053Z AUTO 10012KT 10SM CLR 18/08 A2970 RMK AO2 SLP042 T01830083 TSNO
KGGW 120953Z AUTO 10011KT 10SM CLR 18/07 A2972 RMK AO2 SLP046 T01780067 TSNO
KGGW 120853Z AUTO 10016G21KT 10SM CLR 18/07 A2971 RMK AO2 SLP045 T01830072 53001
KGGW 120753Z AUTO 09010KT 10SM CLR 18/06 A2971 RMK AO2 SLP046 T01830056
KGGW 120653Z AUTO 10012KT 10SM CLR 19/04 A2971 RMK AO2 SLP046 T01940039 403500122
KGGW 120553Z AUTO 07009KT 10SM CLR 22/03 A2971 RMK AO2 SLP045 T02170033 10339 20211 58003
KGGW 120453Z AUTO 06010KT 10SM CLR 24/04 A2971 RMK AO2 SLP046 T02390039
KGGW 120353Z AUTO 06008KT 10SM CLR 23/04 A2973 RMK AO2 SLP054 T02330044
KGGW 120253Z AUTO 05009KT 10SM CLR 26/05 A2972 RMK AO2 SLP052 T02560050 55002
KGGW 120153Z AUTO 01006KT 10SM CLR 29/06 A2972 RMK AO2 SLP049 T02940061
KGGW 120053Z AUTO 34006KT 10SM CLR 33/04 A2972 RMK AO2 SLP050 T03330039
KGGW 112353Z AUTO 30004KT 10SM CLR 34/03 A2973 RMK AO2 SLP054 T03390033 10350 20283 56010
KGGW 112253Z AUTO 31008KT 270V340 10SM CLR 34/03 A2974 RMK AO2 SLP057 T03440028